createdAt,value
2023-02-03T00:02:20.225Z,6.40
2023-02-03T00:04:46.987Z,6.40
2023-02-03T00:07:14.042Z,6.40
2023-02-03T00:09:41.361Z,6.50
2023-02-03T00:12:08.858Z,6.50
2023-02-03T00:14:37.893Z,6.40
2023-02-03T00:17:05.457Z,6.50
2023-02-03T00:19:32.247Z,6.50
2023-02-03T00:21:59.139Z,6.50
2023-02-03T00:24:25.932Z,6.50
2023-02-03T00:26:52.708Z,6.60
2023-02-03T00:29:21.549Z,6.50
2023-02-03T00:31:48.408Z,6.50
2023-02-03T00:34:15.302Z,6.50
2023-02-03T00:36:43.148Z,6.50
2023-02-03T00:39:09.920Z,6.50
2023-02-03T00:41:36.597Z,6.50
2023-02-03T00:44:03.317Z,6.50
2023-02-03T00:46:30.618Z,6.50
2023-02-03T00:48:57.370Z,6.50
2023-02-03T00:51:24.311Z,6.50
2023-02-03T00:53:51.041Z,6.50
2023-02-03T00:56:17.797Z,6.50
2023-02-03T00:58:44.549Z,6.50
2023-02-03T01:01:11.567Z,6.50
2023-02-03T01:03:38.469Z,6.40
2023-02-03T01:06:13.696Z,6.50
2023-02-03T01:08:40.669Z,6.50
2023-02-03T01:11:08.743Z,6.50
2023-02-03T01:13:36.104Z,6.50
2023-02-03T01:16:02.793Z,6.40
2023-02-03T01:18:29.599Z,6.50
2023-02-03T01:20:56.375Z,6.40
2023-02-03T01:23:23.117Z,6.40
2023-02-03T01:25:49.853Z,6.50
2023-02-03T01:28:16.712Z,6.40
2023-02-03T01:30:43.498Z,6.50
2023-02-03T01:33:10.305Z,6.50
2023-02-03T01:35:37.078Z,6.50
2023-02-03T01:38:03.926Z,6.50
2023-02-03T01:40:31.783Z,6.50
2023-02-03T01:42:58.562Z,6.60
2023-02-03T01:45:25.321Z,6.50
2023-02-03T01:47:55.552Z,6.60
2023-02-03T01:50:28.196Z,6.50
2023-02-03T01:52:57.992Z,6.50
2023-02-03T01:55:27.130Z,6.50
2023-02-03T01:58:06.608Z,6.60
2023-02-03T02:00:33.618Z,6.50
2023-02-03T02:03:02.518Z,6.60
2023-02-03T02:05:29.238Z,6.50
2023-02-03T02:07:56.707Z,6.60
2023-02-03T02:10:23.568Z,6.50
2023-02-03T02:12:50.597Z,6.50
2023-02-03T02:15:18.293Z,6.50
2023-02-03T02:17:51.061Z,6.50
2023-02-03T02:20:33.095Z,6.40
2023-02-03T02:23:02.645Z,6.30
2023-02-03T02:25:41.498Z,6.20
2023-02-03T02:28:26.841Z,6.20
2023-02-03T02:31:02.957Z,6.20
2023-02-03T02:33:53.071Z,6.30
2023-02-03T02:36:42.160Z,6.30
2023-02-03T02:39:14.720Z,6.30
2023-02-03T02:41:52.436Z,6.30
2023-02-03T02:44:29.308Z,6.30
2023-02-03T02:47:00.599Z,6.30
2023-02-03T02:49:32.544Z,6.30
2023-02-03T02:52:02.189Z,6.20
2023-02-03T02:54:30.769Z,6.30
2023-02-03T02:56:59.782Z,6.30
2023-02-03T02:59:28.295Z,6.30
2023-02-03T03:01:55.157Z,6.20
2023-02-03T03:04:25.232Z,6.10
2023-02-03T03:07:06.438Z,6.00
2023-02-03T03:09:36.145Z,6.00
2023-02-03T03:12:08.041Z,5.90
2023-02-03T03:14:36.452Z,5.80
2023-02-03T03:17:05.846Z,5.80
2023-02-03T03:19:34.421Z,5.80
2023-02-03T03:22:05.964Z,5.80
2023-02-03T03:24:45.606Z,5.70
2023-02-03T03:27:19.156Z,5.70
2023-02-03T03:29:51.302Z,5.70
2023-02-03T03:32:18.193Z,5.70
2023-02-03T03:34:44.985Z,5.70
2023-02-03T03:37:15.137Z,5.70
2023-02-03T03:39:51.652Z,5.80
2023-02-03T03:42:31.857Z,5.80
2023-02-03T03:45:04.936Z,5.80
2023-02-03T03:47:44.161Z,5.70
2023-02-03T03:50:14.673Z,5.70
2023-02-03T03:52:42.625Z,5.80
2023-02-03T03:55:10.730Z,5.70
2023-02-03T03:57:40.713Z,5.80
2023-02-03T04:00:09.742Z,5.70
2023-02-03T04:02:40.034Z,5.70
2023-02-03T04:05:07.180Z,5.70
2023-02-03T04:07:44.468Z,5.70
2023-02-03T04:10:17.539Z,5.60
2023-02-03T04:12:44.363Z,5.60
2023-02-03T04:15:11.048Z,5.70
2023-02-03T04:17:37.774Z,5.70
2023-02-03T04:20:05.400Z,5.60
2023-02-03T04:22:32.182Z,5.70
2023-02-03T04:24:59.084Z,5.70
2023-02-03T04:27:26.308Z,5.60
2023-02-03T04:29:53.053Z,5.60
2023-02-03T04:32:20.082Z,5.70
2023-02-03T04:34:46.922Z,5.70
2023-02-03T04:37:13.910Z,5.70
2023-02-03T04:39:40.768Z,5.60
2023-02-03T04:42:07.467Z,5.60
2023-02-03T04:44:34.179Z,5.70
2023-02-03T04:47:01.187Z,5.60
2023-02-03T04:49:28.007Z,5.60
2023-02-03T04:51:54.872Z,5.60
2023-02-03T04:54:22.048Z,5.60
2023-02-03T04:56:48.852Z,5.60
2023-02-03T04:59:15.621Z,5.60
2023-02-03T05:01:42.489Z,5.60
2023-02-03T05:04:09.308Z,5.60
2023-02-03T05:06:36.184Z,5.60
2023-02-03T05:09:02.969Z,5.60
2023-02-03T05:11:30.017Z,5.60
2023-02-03T05:13:56.740Z,5.60
2023-02-03T05:16:23.667Z,5.60
2023-02-03T05:18:50.439Z,5.60
2023-02-03T05:21:17.415Z,5.60
2023-02-03T05:23:44.163Z,5.60
2023-02-03T05:26:10.843Z,5.60
2023-02-03T05:28:37.711Z,5.60
2023-02-03T05:31:04.765Z,5.50
2023-02-03T05:33:31.545Z,5.60
2023-02-03T05:35:58.419Z,5.60
2023-02-03T05:38:25.188Z,5.60
2023-02-03T05:41:10.566Z,5.60
2023-02-03T05:43:37.734Z,5.60
2023-02-03T05:46:05.279Z,5.60
2023-02-03T05:48:32.769Z,5.60
2023-02-03T05:50:59.810Z,5.60
2023-02-03T05:53:27.232Z,5.60
2023-02-03T05:55:54.227Z,5.60
2023-02-03T05:58:21.134Z,5.60
2023-02-03T06:00:48.180Z,5.60
2023-02-03T06:03:14.897Z,5.60
2023-02-03T06:05:41.721Z,5.60
2023-02-03T06:08:08.766Z,5.60
2023-02-03T06:10:35.647Z,5.60
2023-02-03T06:13:12.391Z,5.60
2023-02-03T06:15:39.583Z,5.50
2023-02-03T06:18:06.848Z,5.50
2023-02-03T06:20:33.688Z,5.50
2023-02-03T06:23:00.861Z,5.50
2023-02-03T06:25:27.769Z,5.50
2023-02-03T06:27:54.834Z,5.50
2023-02-03T06:30:23.753Z,5.50
2023-02-03T06:32:50.670Z,5.40
2023-02-03T06:35:17.936Z,5.40
2023-02-03T06:37:44.891Z,5.50
2023-02-03T06:40:11.985Z,5.50
2023-02-03T06:42:38.715Z,5.50
2023-02-03T06:45:05.742Z,5.50
2023-02-03T06:47:32.516Z,5.50
2023-02-03T06:49:59.384Z,5.50
2023-02-03T06:52:26.187Z,5.50
2023-02-03T06:54:52.877Z,5.50
2023-02-03T06:57:19.645Z,5.50
2023-02-03T06:59:46.386Z,5.50
2023-02-03T07:02:13.333Z,5.60
2023-02-03T07:04:40.237Z,5.50
2023-02-03T07:07:07.250Z,5.50
2023-02-03T07:09:33.940Z,5.50
2023-02-03T07:12:00.625Z,5.60
2023-02-03T07:14:27.343Z,5.60
2023-02-03T07:16:54.438Z,5.60
2023-02-03T07:19:21.355Z,5.60
2023-02-03T07:21:48.284Z,5.50
2023-02-03T07:24:15.036Z,5.50
2023-02-03T07:26:41.791Z,5.60
2023-02-03T07:29:08.505Z,5.60
2023-02-03T07:31:35.849Z,5.60
2023-02-03T07:34:02.808Z,5.60
2023-02-03T07:36:29.719Z,5.60
2023-02-03T07:38:56.449Z,5.60
2023-02-03T07:41:23.183Z,5.60
2023-02-03T07:43:49.954Z,5.60
2023-02-03T07:46:16.781Z,5.60
2023-02-03T07:48:43.653Z,5.60
2023-02-03T07:51:10.368Z,5.60
2023-02-03T07:53:37.152Z,5.60
2023-02-03T07:56:04.787Z,5.50
2023-02-03T07:58:32.529Z,5.60
2023-02-03T08:00:59.522Z,5.50
2023-02-03T08:03:26.353Z,5.50
2023-02-03T08:05:53.587Z,5.50
2023-02-03T08:08:20.433Z,5.50
2023-02-03T08:10:47.124Z,5.50
2023-02-03T08:13:14.359Z,5.50
2023-02-03T08:15:41.153Z,5.50
2023-02-03T08:18:09.666Z,5.60
2023-02-03T08:20:36.443Z,5.60
2023-02-03T08:23:03.178Z,5.50
2023-02-03T08:25:29.990Z,5.50
2023-02-03T08:27:56.818Z,5.50
2023-02-03T08:30:23.704Z,5.60
2023-02-03T08:32:50.655Z,5.60
2023-02-03T08:35:17.503Z,5.60
2023-02-03T08:37:44.255Z,5.50
2023-02-03T08:40:11.307Z,5.60
2023-02-03T08:42:38.033Z,5.60
2023-02-03T08:45:05.684Z,5.60
2023-02-03T08:47:32.454Z,5.60
2023-02-03T08:49:59.363Z,5.60
2023-02-03T08:52:26.076Z,5.60
2023-02-03T08:54:52.755Z,5.70
2023-02-03T08:57:20.650Z,5.70
2023-02-03T08:59:47.560Z,5.70
2023-02-03T09:02:16.051Z,5.80
2023-02-03T09:04:43.597Z,5.80
2023-02-03T09:07:11.215Z,5.80
2023-02-03T09:09:38.154Z,5.80
2023-02-03T09:12:08.398Z,5.90
2023-02-03T09:14:35.308Z,5.90
2023-02-03T09:17:03.419Z,5.90
2023-02-03T09:19:31.180Z,6.00
2023-02-03T09:21:58.131Z,6.10
2023-02-03T09:24:25.327Z,6.10
2023-02-03T09:26:52.293Z,6.00
2023-02-03T09:29:19.304Z,6.00
2023-02-03T09:31:48.294Z,6.00
2023-02-03T09:34:15.120Z,6.00
2023-02-03T09:36:43.040Z,6.00
2023-02-03T09:39:09.964Z,6.10
2023-02-03T09:41:55.567Z,6.20
2023-02-03T09:44:22.399Z,6.40
2023-02-03T09:46:51.658Z,6.50
2023-02-03T09:49:36.551Z,6.50
2023-02-03T09:52:11.271Z,6.40
2023-02-03T09:54:43.443Z,6.40
2023-02-03T09:57:20.447Z,6.40
2023-02-03T09:59:47.843Z,6.40
2023-02-03T10:02:20.746Z,6.40
2023-02-03T10:04:54.126Z,6.40
2023-02-03T10:07:39.649Z,6.70
2023-02-03T10:10:19.341Z,6.70
2023-02-03T10:13:02.075Z,6.50
2023-02-03T10:15:32.070Z,6.30
2023-02-03T10:18:06.954Z,6.20
2023-02-03T10:20:42.764Z,6.20
2023-02-03T10:23:18.131Z,6.20
2023-02-03T10:25:49.677Z,6.30
2023-02-03T10:28:20.838Z,6.30
2023-02-03T10:31:01.478Z,6.40
2023-02-03T10:33:29.730Z,6.40
2023-02-03T10:36:19.794Z,6.40
2023-02-03T10:39:05.055Z,6.40
2023-02-03T10:41:32.368Z,6.30
2023-02-03T10:44:01.804Z,6.30
2023-02-03T10:46:30.208Z,6.20
2023-02-03T10:48:57.303Z,6.20
2023-02-03T10:51:25.497Z,6.20
2023-02-03T10:53:53.533Z,6.20
2023-02-03T10:56:22.774Z,6.20
2023-02-03T10:58:59.371Z,6.10
2023-02-03T11:01:45.255Z,6.10
2023-02-03T11:04:24.390Z,6.00
2023-02-03T11:06:54.126Z,6.00
2023-02-03T11:09:29.493Z,6.00
2023-02-03T11:12:06.832Z,6.00
2023-02-03T11:14:37.814Z,6.10
2023-02-03T11:17:09.010Z,6.10
2023-02-03T11:19:38.250Z,6.10
2023-02-03T11:22:05.198Z,6.20
2023-02-03T11:24:33.615Z,6.20
2023-02-03T11:27:06.881Z,6.10
2023-02-03T11:29:35.688Z,6.20
2023-02-03T11:32:04.474Z,6.20
2023-02-03T11:34:33.377Z,6.20
2023-02-03T11:37:18.628Z,6.20
2023-02-03T11:39:45.555Z,6.20
2023-02-03T11:42:21.565Z,6.30
2023-02-03T11:44:48.335Z,6.30
2023-02-03T11:47:16.893Z,6.30
2023-02-03T11:50:05.409Z,6.30
2023-02-03T11:52:44.383Z,6.30
2023-02-03T11:55:16.617Z,6.30
2023-02-03T11:57:43.375Z,6.30
2023-02-03T12:00:22.529Z,6.30
2023-02-03T12:03:08.329Z,6.30
2023-02-03T12:05:58.218Z,6.40
2023-02-03T12:08:34.966Z,6.40
2023-02-03T12:11:07.976Z,6.40
2023-02-03T12:13:34.728Z,6.50
2023-02-03T12:16:09.562Z,6.60
2023-02-03T12:19:06.216Z,6.60
2023-02-03T12:22:05.733Z,6.70
2023-02-03T12:24:41.328Z,6.80
2023-02-03T12:27:29.148Z,6.80
2023-02-03T12:30:05.661Z,6.80
2023-02-03T12:32:42.312Z,6.80
2023-02-03T12:35:15.653Z,6.70
2023-02-03T12:37:50.067Z,6.60
2023-02-03T12:40:33.378Z,6.60
2023-02-03T12:43:11.295Z,6.70
2023-02-03T12:45:39.784Z,6.70
2023-02-03T12:48:12.236Z,6.60
2023-02-03T12:50:49.528Z,6.60
2023-02-03T12:53:24.812Z,6.60
2023-02-03T12:55:55.832Z,6.60
2023-02-03T12:58:28.505Z,6.60
2023-02-03T13:00:58.800Z,6.60
2023-02-03T13:03:25.995Z,6.60
2023-02-03T13:06:12.480Z,6.60
2023-02-03T13:08:42.116Z,6.60
2023-02-03T13:11:15.266Z,6.60
2023-02-03T13:13:45.960Z,6.60
2023-02-03T13:16:13.968Z,6.70
2023-02-03T13:18:46.290Z,6.70
2023-02-03T13:21:13.127Z,6.60
2023-02-03T13:23:44.558Z,6.60
2023-02-03T13:26:31.063Z,6.60
2023-02-03T13:28:57.944Z,6.60
2023-02-03T13:31:30.775Z,6.60
2023-02-03T13:34:16.221Z,6.70
2023-02-03T13:36:52.892Z,6.60
2023-02-03T13:39:36.340Z,6.70
2023-02-03T13:42:18.115Z,6.70
2023-02-03T13:44:46.326Z,6.70
2023-02-03T13:47:18.013Z,6.70
2023-02-03T13:49:48.824Z,6.80
2023-02-03T13:52:25.849Z,6.80
2023-02-03T13:54:52.742Z,6.70
2023-02-03T13:57:21.830Z,6.90
2023-02-03T13:59:49.782Z,6.90
2023-02-03T14:02:19.302Z,6.90
2023-02-03T14:04:46.194Z,7.00
2023-02-03T14:07:37.994Z,7.10
2023-02-03T14:10:14.289Z,7.20
2023-02-03T14:12:50.060Z,7.30
2023-02-03T14:15:16.851Z,7.30
2023-02-03T14:17:43.689Z,7.40
2023-02-03T14:20:25.621Z,7.40
2023-02-03T14:22:55.440Z,7.40
2023-02-03T14:25:22.382Z,7.50
2023-02-03T14:27:59.034Z,7.50
2023-02-03T14:30:26.023Z,7.50
2023-02-03T14:32:55.317Z,7.50
2023-02-03T14:35:30.258Z,7.50
2023-02-03T14:37:58.667Z,7.60
2023-02-03T14:40:26.121Z,7.60
2023-02-03T14:43:11.067Z,7.60
2023-02-03T14:45:38.840Z,7.60
2023-02-03T14:48:24.106Z,7.60
2023-02-03T14:50:53.955Z,7.60
2023-02-03T14:53:56.224Z,7.60
2023-02-03T14:56:25.721Z,7.50
2023-02-03T14:58:57.427Z,7.50
2023-02-03T15:01:24.365Z,7.40
2023-02-03T15:04:26.794Z,7.30
2023-02-03T15:06:54.076Z,7.30
2023-02-03T15:09:30.055Z,7.20
2023-02-03T15:11:56.802Z,7.10
2023-02-03T15:14:28.024Z,7.10
2023-02-03T15:16:56.020Z,7.10
2023-02-03T15:19:24.219Z,7.10
2023-02-03T15:21:51.112Z,7.10
2023-02-03T15:24:21.271Z,7.10
2023-02-03T15:26:49.610Z,7.00
2023-02-03T15:29:24.795Z,7.00
2023-02-03T15:31:54.590Z,7.00
2023-02-03T15:34:36.694Z,7.00
2023-02-03T15:37:07.732Z,7.00
2023-02-03T15:39:39.047Z,7.00
2023-02-03T15:42:13.851Z,7.00
2023-02-03T15:44:43.394Z,7.00
2023-02-03T15:47:39.605Z,7.00
2023-02-03T15:50:22.350Z,6.90
2023-02-03T15:52:49.953Z,6.90
2023-02-03T15:55:21.447Z,6.90
2023-02-03T15:57:49.117Z,6.90
2023-02-03T16:00:27.359Z,6.90
2023-02-03T16:02:55.344Z,6.90
2023-02-03T16:05:33.295Z,6.90
2023-02-03T16:08:18.986Z,6.90
2023-02-03T16:10:45.740Z,6.90
2023-02-03T16:13:26.098Z,7.00
2023-02-03T16:16:15.707Z,7.00
2023-02-03T16:18:50.189Z,7.00
2023-02-03T16:21:36.816Z,7.00
2023-02-03T16:24:05.180Z,7.00
2023-02-03T16:26:32.870Z,7.00
2023-02-03T16:29:21.460Z,7.00
2023-02-03T16:32:07.425Z,7.00
2023-02-03T16:34:53.209Z,7.00
2023-02-03T16:37:42.613Z,7.00
2023-02-03T16:40:31.519Z,7.00
2023-02-03T16:43:17.136Z,7.00
2023-02-03T16:46:02.688Z,6.90
2023-02-03T16:48:48.469Z,7.00
2023-02-03T16:51:16.169Z,7.00
2023-02-03T16:53:44.405Z,7.00
2023-02-03T16:56:13.143Z,7.00
2023-02-03T16:58:40.119Z,7.00
2023-02-03T17:01:07.898Z,7.00
2023-02-03T17:03:35.381Z,7.00
2023-02-03T17:06:03.848Z,7.00
2023-02-03T17:08:30.622Z,7.00
2023-02-03T17:11:02.142Z,7.00
2023-02-03T17:13:28.940Z,7.10
2023-02-03T17:15:55.740Z,7.10
2023-02-03T17:18:22.694Z,7.20
2023-02-03T17:20:49.446Z,7.10
2023-02-03T17:23:16.844Z,7.10
2023-02-03T17:25:44.644Z,7.10
2023-02-03T17:28:13.569Z,7.10
2023-02-03T17:30:40.553Z,7.10
2023-02-03T17:33:16.812Z,7.00
2023-02-03T17:35:44.787Z,7.10
2023-02-03T17:38:12.518Z,7.10
2023-02-03T17:54:29.188Z,6.90
2023-02-03T17:56:56.033Z,6.90
2023-02-03T17:59:22.930Z,6.90
2023-02-03T18:01:49.806Z,6.80
2023-02-03T18:04:16.727Z,6.90
2023-02-03T18:06:43.476Z,6.80
2023-02-03T18:09:10.674Z,6.80
2023-02-03T18:11:38.079Z,6.80
2023-02-03T18:14:05.562Z,6.80
2023-02-03T18:16:34.715Z,6.80
2023-02-03T18:19:03.516Z,6.80
2023-02-03T18:21:32.371Z,6.80
2023-02-03T18:24:01.645Z,6.90
2023-02-03T18:26:29.904Z,6.90
2023-02-03T18:28:56.646Z,6.80
2023-02-03T18:31:25.160Z,6.90
2023-02-03T18:33:52.120Z,6.90
2023-02-03T18:36:18.876Z,6.80
2023-02-03T18:38:46.421Z,6.90
2023-02-03T18:41:17.772Z,6.80
2023-02-03T18:43:45.118Z,6.90
2023-02-03T18:46:13.752Z,6.90
2023-02-03T18:48:40.637Z,6.90
2023-02-03T18:51:08.537Z,6.90
2023-02-03T18:53:36.065Z,6.90
2023-02-03T18:56:05.509Z,6.90
2023-02-03T18:58:32.227Z,6.90
2023-02-03T19:00:59.244Z,6.90
2023-02-03T19:03:26.844Z,6.90
2023-02-03T19:05:54.229Z,6.90
2023-02-03T19:08:21.058Z,7.00
2023-02-03T19:10:50.915Z,7.00
2023-02-03T19:13:19.577Z,6.90
2023-02-03T19:15:47.628Z,6.90
2023-02-03T19:18:15.428Z,6.90
2023-02-03T19:20:43.030Z,6.90
2023-02-03T19:23:11.188Z,6.90
2023-02-03T19:25:38.124Z,6.90
2023-02-03T19:28:06.763Z,7.00
2023-02-03T19:30:33.665Z,6.90
2023-02-03T19:33:00.522Z,6.90
2023-02-03T19:35:27.242Z,6.90
2023-02-03T19:37:54.060Z,6.90
2023-02-03T19:40:20.788Z,7.00
2023-02-03T19:42:49.016Z,7.00
2023-02-03T19:45:15.934Z,7.00
2023-02-03T19:47:42.892Z,6.90
2023-02-03T19:50:09.808Z,7.00
2023-02-03T19:52:36.608Z,7.00
2023-02-03T19:55:03.560Z,7.00
2023-02-03T19:57:30.525Z,6.90
2023-02-03T19:59:57.612Z,7.00
2023-02-03T20:02:25.865Z,7.00
2023-02-03T20:04:53.021Z,7.00
2023-02-03T20:07:20.259Z,7.00
2023-02-03T20:09:47.661Z,7.00
2023-02-03T20:12:14.470Z,7.00
2023-02-03T20:14:41.195Z,7.00
2023-02-03T20:17:08.264Z,7.00
2023-02-03T20:19:34.976Z,7.00
2023-02-03T20:22:02.229Z,7.00
2023-02-03T20:24:28.983Z,7.00
2023-02-03T20:26:55.898Z,7.10
2023-02-03T20:29:22.646Z,7.10
2023-02-03T20:31:50.425Z,7.10
2023-02-03T20:34:18.004Z,7.10
2023-02-03T20:36:44.727Z,7.20
2023-02-03T20:39:16.099Z,7.10
2023-02-03T20:41:42.905Z,7.20
2023-02-03T20:44:13.375Z,7.20
2023-02-03T20:46:40.560Z,7.20
2023-02-03T20:49:14.888Z,7.20
2023-02-03T20:51:41.739Z,7.20
2023-02-03T20:54:13.523Z,7.20
2023-02-03T20:56:40.476Z,7.30
2023-02-03T20:59:13.837Z,7.20
2023-02-03T21:01:40.668Z,7.30
2023-02-03T21:04:30.321Z,7.20
2023-02-03T21:06:57.184Z,7.20
2023-02-03T21:09:24.112Z,7.30
2023-02-03T21:11:51.832Z,7.30
2023-02-03T21:14:23.387Z,7.20
2023-02-03T21:16:50.778Z,7.20
2023-02-03T21:19:33.532Z,7.20
2023-02-03T21:22:07.247Z,7.20
2023-02-03T21:24:37.915Z,7.20
2023-02-03T21:27:18.923Z,7.20
2023-02-03T21:29:45.696Z,7.20
2023-02-03T21:32:13.858Z,7.10
2023-02-03T21:34:42.542Z,7.10
2023-02-03T21:37:24.567Z,7.20
2023-02-03T21:39:51.397Z,7.10
2023-02-03T21:42:42.569Z,7.20
2023-02-03T21:45:19.825Z,7.20
2023-02-03T21:47:47.784Z,7.20
2023-02-03T21:50:27.335Z,7.20
2023-02-03T21:52:54.349Z,7.10
2023-02-03T21:55:21.078Z,7.20
2023-02-03T21:57:48.352Z,7.10
2023-02-03T22:00:34.509Z,7.20
2023-02-03T22:03:01.906Z,7.20
2023-02-03T22:05:28.717Z,7.10
2023-02-03T22:07:55.702Z,7.20
2023-02-03T22:10:22.385Z,7.20
2023-02-03T22:12:49.120Z,7.10
2023-02-03T22:15:15.938Z,7.10
2023-02-03T22:17:42.690Z,7.10
2023-02-03T22:20:09.746Z,7.20
2023-02-03T22:22:36.595Z,7.20
2023-02-03T22:25:03.423Z,7.20
2023-02-03T22:27:31.371Z,7.20
2023-02-03T22:29:58.106Z,7.20
2023-02-03T22:32:24.879Z,7.30
2023-02-03T22:34:51.616Z,7.20
2023-02-03T22:37:18.291Z,7.20
2023-02-03T22:39:45.054Z,7.30
2023-02-03T22:42:11.820Z,7.30
2023-02-03T22:44:38.557Z,7.20
2023-02-03T22:47:05.461Z,7.30
2023-02-03T22:49:32.167Z,7.20
2023-02-03T22:51:58.885Z,7.20
2023-02-03T22:54:25.689Z,7.20
2023-02-03T22:56:52.539Z,7.20
2023-02-03T22:59:19.297Z,7.20
2023-02-03T23:01:46.000Z,7.20
2023-02-03T23:04:12.756Z,7.20
2023-02-03T23:06:39.483Z,7.20
2023-02-03T23:09:06.338Z,7.10
2023-02-03T23:11:33.517Z,7.20
2023-02-03T23:14:00.367Z,7.30
2023-02-03T23:16:27.139Z,7.30
2023-02-03T23:18:53.856Z,7.20
2023-02-03T23:21:20.527Z,7.20
2023-02-03T23:23:47.436Z,7.30
2023-02-03T23:26:14.196Z,7.30
2023-02-03T23:28:40.980Z,7.20
2023-02-03T23:31:07.748Z,7.10
2023-02-03T23:33:34.471Z,7.20
2023-02-03T23:36:01.182Z,7.30
2023-02-03T23:38:28.152Z,7.30
2023-02-03T23:40:56.018Z,7.30
2023-02-03T23:43:22.763Z,7.40
2023-02-03T23:45:49.432Z,7.30
2023-02-03T23:48:17.709Z,7.30
2023-02-03T23:50:44.451Z,7.30
2023-02-03T23:53:11.443Z,7.20
2023-02-03T23:55:38.235Z,7.30
2023-02-03T23:58:05.131Z,7.30
